Bay View, Wisconsin
Current Conditions -  °F | °C
As of 7:05 PM on Friday 28 Nov 2014 (Local Time) from KMKE Reporting Station
Light Snow Light Snow  
Wind Chill: 22°   Ceiling: 7000
Heat Index: 31°   Visibility: 7mi
Dew Point: 24°   Wind: 12mph
Humidity: 76%   Direction: 180°S
Pressure: 29.93"   Gusts: NA
Location:  42.9716°N, 87.9016°W
Report Text: KMKE 290105Z 18010KT 7SM -FZRASN BKN070 OVC085 M01/M04 A2993 RMK AO2 FZRAB0059PLE0059 P0000 I1000 T10061044
Loading
Personal Weather Stations






























Interactive Weather Map New forecast layout! Learn more

10-Day Weather Forecast

Advertisements
Track Severe Weather on mobile